createdAt,value
2022-12-15T00:00:25.961Z,14.80
2022-12-15T00:04:46.364Z,16.75
2022-12-15T00:09:14.067Z,15.77
2022-12-15T00:13:35.542Z,14.50
2022-12-15T00:17:57.023Z,13.52
2022-12-15T00:22:17.756Z,16.52
2022-12-15T00:26:39.607Z,16.08
2022-12-15T00:31:02.451Z,15.97
2022-12-15T00:35:24.545Z,14.48
2022-12-15T00:39:28.280Z,17.10
2022-12-15T00:43:36.862Z,16.27
2022-12-15T00:47:40.375Z,17.05
2022-12-15T00:52:00.971Z,13.25
2022-12-15T00:56:22.182Z,14.15
2022-12-15T01:00:44.505Z,14.10
2022-12-15T01:05:05.387Z,16.08
2022-12-15T01:09:28.149Z,15.07
2022-12-15T01:18:12.392Z,15.02
2022-12-15T01:22:15.851Z,15.55
2022-12-15T01:26:19.112Z,16.30
2022-12-15T01:30:24.574Z,16.42
2022-12-15T01:34:29.505Z,15.43
2022-12-15T01:38:33.037Z,16.13
2022-12-15T01:42:36.109Z,16.70
2022-12-15T01:46:39.659Z,16.83
2022-12-15T01:50:48.312Z,16.58
2022-12-15T01:54:55.980Z,15.57
2022-12-15T01:59:03.380Z,15.98
2022-12-15T02:03:08.414Z,16.05
2022-12-15T02:07:15.447Z,16.70
2022-12-15T02:12:02.672Z,18.73
2022-12-15T02:16:14.360Z,15.20
2022-12-15T02:20:42.425Z,17.33
2022-12-15T02:29:58.553Z,17.75
2022-12-15T02:34:10.282Z,18.27
2022-12-15T02:38:14.161Z,18.53
2022-12-15T02:42:17.670Z,15.65
2022-12-15T02:46:28.143Z,16.85
2022-12-15T02:50:50.660Z,18.02
2022-12-15T02:55:10.107Z,16.58
2022-12-15T02:59:21.335Z,15.63
2022-12-15T03:03:25.992Z,17.00
2022-12-15T03:07:30.756Z,16.65
2022-12-15T03:11:34.903Z,15.68
2022-12-15T03:15:38.417Z,17.10
2022-12-15T03:19:42.046Z,18.17
2022-12-15T03:23:46.873Z,16.75
2022-12-15T03:27:50.444Z,14.95
2022-12-15T03:31:54.043Z,16.75
2022-12-15T03:35:57.930Z,15.13
2022-12-15T03:40:02.915Z,14.98
2022-12-15T03:44:06.376Z,17.98
2022-12-15T03:48:09.942Z,17.42
2022-12-15T03:52:13.758Z,15.15
2022-12-15T03:56:19.476Z,16.25
2022-12-15T04:00:24.915Z,16.08
2022-12-15T04:04:28.413Z,18.05
2022-12-15T04:08:32.005Z,15.20
2022-12-15T04:12:39.748Z,14.15
2022-12-15T04:16:43.289Z,15.23
2022-12-15T04:20:46.319Z,14.98
2022-12-15T04:25:11.472Z,15.65
2022-12-15T04:29:33.776Z,16.73
2022-12-15T04:33:55.724Z,14.35
2022-12-15T04:38:16.964Z,16.57
2022-12-15T04:42:37.791Z,16.20
2022-12-15T04:47:02.573Z,14.85
2022-12-15T04:51:24.183Z,16.00
2022-12-15T04:55:45.349Z,16.02
2022-12-15T05:00:06.373Z,15.82
2022-12-15T05:04:28.415Z,13.80
2022-12-15T05:08:50.132Z,15.25
2022-12-15T05:13:10.873Z,14.77
2022-12-15T05:17:33.562Z,13.95
2022-12-15T05:21:56.574Z,16.92
2022-12-15T05:26:18.355Z,16.90
2022-12-15T05:30:39.474Z,18.87
2022-12-15T05:34:43.242Z,14.95
2022-12-15T05:38:50.431Z,13.73
2022-12-15T05:42:54.088Z,16.13
2022-12-15T05:46:58.171Z,16.23
2022-12-15T05:51:05.445Z,16.15
2022-12-15T05:55:10.938Z,17.48
2022-12-15T05:59:15.587Z,18.73
2022-12-15T06:03:19.039Z,18.10
2022-12-15T06:07:22.085Z,17.17
2022-12-15T06:11:27.694Z,16.02
2022-12-15T06:15:31.140Z,17.90
2022-12-15T06:19:34.119Z,15.45
2022-12-15T06:23:38.384Z,16.77
2022-12-15T06:27:43.330Z,16.55
2022-12-15T06:31:46.930Z,14.13
2022-12-15T06:35:53.969Z,17.95
2022-12-15T06:40:01.101Z,15.38
2022-12-15T06:44:06.528Z,16.40
2022-12-15T06:48:10.269Z,16.55
2022-12-15T06:52:14.105Z,17.48
2022-12-15T06:56:23.352Z,16.23
2022-12-15T07:00:32.736Z,16.77
2022-12-15T07:04:36.300Z,17.73
2022-12-15T07:08:41.878Z,18.05
2022-12-15T07:12:45.807Z,18.08
2022-12-15T07:16:50.312Z,18.85
2022-12-15T07:20:53.928Z,19.02
2022-12-15T07:24:57.616Z,18.45
2022-12-15T07:29:01.301Z,17.10
2022-12-15T07:33:06.613Z,18.45
2022-12-15T07:37:10.304Z,15.77
2022-12-15T07:41:14.020Z,16.60
2022-12-15T07:45:17.605Z,17.73
2022-12-15T07:49:22.950Z,17.38
2022-12-15T07:53:28.532Z,18.98
2022-12-15T07:57:32.987Z,17.17
2022-12-15T08:01:37.145Z,20.05
2022-12-15T08:05:42.030Z,16.88
2022-12-15T08:09:47.847Z,17.23
2022-12-15T08:14:02.570Z,20.77
2022-12-15T08:18:09.250Z,17.67
2022-12-15T08:22:15.731Z,17.45
2022-12-15T08:26:23.806Z,16.30
2022-12-15T08:30:30.431Z,16.85
2022-12-15T08:34:35.977Z,18.42
2022-12-15T08:38:42.778Z,17.10
2022-12-15T08:42:46.535Z,19.75
2022-12-15T08:46:49.597Z,17.88
2022-12-15T08:50:52.989Z,19.20
2022-12-15T08:54:58.033Z,20.10
2022-12-15T08:59:03.288Z,17.15
2022-12-15T09:03:06.801Z,17.25
2022-12-15T09:07:10.366Z,18.17
2022-12-15T09:11:15.803Z,17.27
2022-12-15T09:15:19.432Z,16.27
2022-12-15T09:19:22.926Z,18.08
2022-12-15T09:23:26.245Z,15.73
2022-12-15T09:27:31.785Z,19.67
2022-12-15T09:31:39.537Z,16.80
2022-12-15T09:35:42.860Z,18.83
2022-12-15T09:39:46.517Z,17.67
2022-12-15T09:43:56.721Z,19.00
2022-12-15T09:48:05.118Z,16.42
2022-12-15T09:52:14.171Z,17.33
2022-12-15T09:56:24.739Z,17.17
2022-12-15T10:00:34.366Z,18.55
2022-12-15T10:04:51.309Z,15.48
2022-12-15T10:08:57.417Z,18.30
2022-12-15T10:13:09.079Z,17.88
2022-12-15T10:17:23.244Z,16.23
2022-12-15T10:21:30.660Z,16.90
2022-12-15T11:24:09.476Z,17.60
2022-12-15T11:28:18.341Z,20.13
2022-12-15T11:32:25.088Z,20.75
2022-12-15T11:36:57.848Z,20.38
2022-12-15T11:41:10.587Z,18.83
2022-12-15T11:49:47.876Z,20.67
2022-12-15T11:54:08.167Z,22.40
2022-12-15T11:58:48.601Z,19.83
2022-12-15T12:03:03.439Z,19.88
2022-12-15T12:07:19.565Z,21.00
2022-12-15T12:11:28.145Z,21.85
2022-12-15T12:15:38.791Z,21.70
2022-12-15T12:19:50.776Z,20.23
2022-12-15T12:24:01.465Z,21.40
2022-12-15T12:28:11.757Z,20.60
2022-12-15T12:32:20.778Z,20.00
2022-12-15T12:36:25.485Z,21.15
2022-12-15T12:40:37.242Z,20.38
2022-12-15T12:44:40.491Z,22.15
2022-12-15T12:48:52.256Z,22.60
2022-12-15T12:52:59.568Z,22.23
2022-12-15T12:57:03.618Z,25.20
2022-12-15T13:01:20.322Z,23.35
2022-12-15T13:05:30.047Z,24.20
2022-12-15T13:09:42.814Z,25.10
2022-12-15T13:17:59.740Z,23.42
2022-12-15T13:22:03.007Z,20.48
2022-12-15T13:26:21.339Z,23.95
2022-12-15T13:30:24.851Z,22.75
2022-12-15T13:34:29.642Z,21.52
2022-12-15T13:38:54.331Z,18.45
2022-12-15T13:43:01.349Z,18.10
2022-12-15T13:47:11.004Z,18.83
2022-12-15T13:51:27.031Z,18.45
2022-12-15T13:55:37.514Z,18.67
2022-12-15T13:59:49.452Z,17.08
2022-12-15T14:04:07.401Z,19.45
2022-12-15T14:08:16.282Z,16.58
2022-12-15T14:12:19.602Z,16.63
2022-12-15T14:16:26.134Z,18.88
2022-12-15T14:20:32.038Z,17.17
2022-12-15T14:24:40.262Z,19.70
2022-12-15T14:28:45.816Z,17.20
2022-12-15T14:32:54.675Z,17.92
2022-12-15T14:36:59.930Z,17.38
2022-12-15T14:41:06.208Z,21.73
2022-12-15T14:45:20.279Z,20.20
2022-12-15T14:49:28.422Z,19.88
2022-12-15T14:53:34.914Z,20.15
2022-12-15T14:57:46.671Z,21.52
2022-12-15T15:01:58.516Z,20.00
2022-12-15T15:06:08.608Z,18.65
2022-12-15T15:10:24.629Z,19.08
2022-12-15T15:14:32.300Z,19.50
2022-12-15T15:18:35.610Z,19.27
2022-12-15T15:22:42.789Z,19.92
2022-12-15T15:26:45.929Z,19.35
2022-12-15T15:30:51.058Z,21.20
2022-12-15T15:34:59.381Z,19.75
2022-12-15T15:39:13.214Z,17.20
2022-12-15T15:43:17.798Z,21.75
2022-12-15T15:47:26.070Z,20.92
2022-12-15T15:51:31.403Z,19.05
2022-12-15T15:55:39.872Z,19.67
2022-12-15T15:59:44.284Z,17.77
2022-12-15T16:03:47.791Z,19.48
2022-12-15T16:07:51.810Z,18.88
2022-12-15T16:11:56.583Z,20.85
2022-12-15T16:15:59.991Z,21.67
2022-12-15T16:20:03.023Z,19.88
2022-12-15T16:24:10.116Z,20.38
2022-12-15T16:28:17.271Z,19.13
2022-12-15T16:32:20.505Z,18.88
2022-12-15T16:36:23.827Z,19.75
2022-12-15T16:40:31.271Z,20.77
2022-12-15T16:44:36.121Z,19.98
2022-12-15T16:48:39.397Z,21.05
2022-12-15T16:52:44.424Z,19.40
2022-12-15T16:56:47.706Z,20.63
2022-12-15T17:00:53.871Z,19.90
2022-12-15T17:04:57.263Z,21.00
2022-12-15T17:09:00.528Z,18.55
2022-12-15T17:13:08.154Z,18.20
2022-12-15T17:17:15.874Z,20.30
2022-12-15T17:21:22.107Z,19.85
2022-12-15T17:26:00.858Z,21.23
2022-12-15T17:29:51.036Z,19.13
2022-12-15T17:33:55.477Z,22.23
2022-12-15T17:37:58.786Z,21.40
2022-12-15T17:42:03.166Z,21.30
2022-12-15T17:46:07.017Z,21.02
2022-12-15T17:50:14.941Z,20.88
2022-12-15T17:54:20.080Z,22.67
2022-12-15T17:58:26.636Z,20.33
2022-12-15T18:02:30.084Z,20.25
2022-12-15T18:06:34.742Z,21.75
2022-12-15T18:10:40.994Z,19.70
2022-12-15T18:14:44.642Z,20.38
2022-12-15T18:18:47.966Z,21.83
2022-12-15T18:22:54.186Z,20.75
2022-12-15T18:26:57.247Z,20.38
2022-12-15T18:31:04.430Z,20.30
2022-12-15T18:35:16.197Z,22.10
2022-12-15T18:39:24.059Z,19.40
2022-12-15T18:43:30.649Z,20.92
2022-12-15T18:47:34.491Z,17.92
2022-12-15T18:51:37.886Z,19.25
2022-12-15T18:55:42.928Z,18.45
2022-12-15T18:59:46.225Z,17.73
2022-12-15T19:03:49.636Z,17.75
2022-12-15T19:07:53.066Z,19.33
2022-12-15T19:12:14.584Z,20.70
2022-12-15T19:16:20.265Z,18.38
2022-12-15T19:20:40.615Z,18.13
2022-12-15T19:24:56.240Z,22.80
2022-12-15T19:29:01.625Z,21.52
2022-12-15T19:33:05.868Z,19.35
2022-12-15T19:37:15.710Z,21.10
2022-12-15T19:41:19.802Z,21.52
2022-12-15T19:45:27.861Z,18.52
2022-12-15T19:49:32.109Z,20.17
2022-12-15T19:53:36.915Z,18.58
2022-12-15T19:57:42.377Z,20.00
2022-12-15T20:01:47.866Z,21.83
2022-12-15T20:10:29.367Z,22.42
2022-12-15T20:14:35.149Z,21.25
2022-12-15T20:18:40.997Z,21.42
2022-12-15T20:22:45.535Z,20.63
2022-12-15T20:26:56.564Z,22.20
2022-12-15T20:31:00.435Z,23.10
2022-12-15T20:35:05.690Z,22.63
2022-12-15T20:39:20.794Z,22.95
2022-12-15T20:43:31.397Z,21.38
2022-12-15T20:47:36.721Z,22.20
2022-12-15T20:51:41.880Z,21.85
2022-12-15T20:55:45.428Z,19.30
2022-12-15T20:59:49.601Z,20.40
2022-12-15T21:03:55.525Z,20.02
2022-12-15T21:08:00.182Z,21.13
2022-12-15T21:12:09.033Z,21.50
2022-12-15T21:16:17.130Z,21.17
2022-12-15T21:20:21.666Z,21.73
2022-12-15T21:24:29.510Z,20.40
2022-12-15T21:28:33.607Z,21.55
2022-12-15T21:32:37.317Z,20.63
2022-12-15T21:36:43.425Z,20.08
2022-12-15T21:40:48.188Z,20.55
2022-12-15T21:44:51.698Z,18.60
2022-12-15T21:49:12.412Z,19.42
2022-12-15T21:53:17.924Z,17.63
2022-12-15T21:57:22.702Z,20.45
2022-12-15T22:01:30.666Z,19.52
2022-12-15T22:05:34.222Z,20.08
2022-12-15T22:09:37.485Z,18.90
2022-12-15T22:13:42.338Z,16.30
2022-12-15T22:17:46.147Z,18.77
2022-12-15T22:21:50.261Z,20.63
2022-12-15T22:25:57.064Z,19.13
2022-12-15T22:30:01.917Z,19.33
2022-12-15T22:34:13.971Z,21.80
2022-12-15T22:38:18.721Z,18.95
2022-12-15T22:42:22.039Z,20.40
2022-12-15T22:46:26.769Z,19.92
2022-12-15T22:50:30.365Z,19.65
2022-12-15T22:54:33.734Z,18.27
2022-12-15T22:58:43.389Z,20.25
2022-12-15T23:02:48.731Z,19.92
2022-12-15T23:06:52.308Z,20.80
2022-12-15T23:11:13.190Z,21.35
2022-12-15T23:15:34.286Z,17.60
2022-12-15T23:19:39.189Z,19.10
2022-12-15T23:23:42.714Z,18.90
2022-12-15T23:27:46.071Z,20.73
2022-12-15T23:31:50.046Z,16.00
2022-12-15T23:35:56.347Z,19.20
2022-12-15T23:39:59.537Z,16.50
2022-12-15T23:44:03.211Z,16.38
2022-12-15T23:48:07.642Z,17.15
2022-12-15T23:52:12.550Z,15.25
2022-12-15T23:56:17.864Z,14.13
